createdAt,value
2023-05-17T00:00:10.331Z,37334.34
2023-05-17T00:02:37.753Z,37326.34
2023-05-17T00:05:05.116Z,37358.25
2023-05-17T00:07:31.704Z,37344.31
2023-05-17T00:09:58.107Z,37364.25
2023-05-17T00:12:24.540Z,37342.31
2023-05-17T00:14:51.142Z,37350.28
2023-05-17T00:17:17.616Z,37352.28
2023-05-17T00:19:44.242Z,37354.28
2023-05-17T00:22:10.742Z,37368.22
2023-05-17T00:24:37.226Z,37386.16
2023-05-17T00:27:03.878Z,37374.22
2023-05-17T00:29:30.390Z,37386.16
2023-05-17T00:31:56.836Z,37386.16
2023-05-17T00:34:23.750Z,37396.13
2023-05-17T00:36:50.380Z,37394.13
2023-05-17T00:39:18.283Z,37400.13
2023-05-17T00:41:44.816Z,37422.06
2023-05-17T00:44:11.843Z,37424.03
2023-05-17T00:46:38.324Z,37422.06
2023-05-17T00:49:04.965Z,37447.97
2023-05-17T00:51:31.723Z,37438.00
2023-05-17T00:53:59.463Z,37473.88
2023-05-17T00:56:25.933Z,37436.00
2023-05-17T00:58:54.121Z,37453.94
2023-05-17T01:01:21.282Z,37461.94
2023-05-17T01:03:48.457Z,37477.88
2023-05-17T01:06:15.216Z,37445.97
2023-05-17T01:08:42.826Z,37479.88
2023-05-17T01:11:31.109Z,37489.84
2023-05-17T01:14:35.301Z,37485.84
2023-05-17T01:17:06.143Z,37499.81
2023-05-17T01:19:45.415Z,37535.69
2023-05-17T01:22:34.108Z,37481.88
2023-05-17T01:25:37.623Z,37529.72
2023-05-17T01:28:06.154Z,37545.66
2023-05-17T01:30:34.335Z,37549.66
2023-05-17T01:33:02.573Z,37553.63
2023-05-17T01:35:29.739Z,37581.56
2023-05-17T01:37:56.429Z,37607.47
2023-05-17T01:40:24.396Z,37573.56
2023-05-17T01:43:10.630Z,37619.44
2023-05-17T01:46:05.569Z,37653.31
2023-05-17T01:48:36.931Z,37635.38
2023-05-17T01:51:04.263Z,37633.38
2023-05-17T01:53:42.658Z,37689.22
2023-05-17T01:56:14.861Z,37689.22
2023-05-17T01:58:46.510Z,37739.06
2023-05-17T02:01:15.803Z,37753.03
2023-05-17T02:03:42.793Z,37759.00
2023-05-17T02:06:09.354Z,37790.91
2023-05-17T02:08:35.858Z,37800.88
2023-05-17T02:11:02.392Z,37868.66
2023-05-17T02:13:30.671Z,37832.78
2023-05-17T02:16:00.919Z,37870.66
2023-05-17T02:18:28.031Z,37860.69
2023-05-17T02:20:55.034Z,37832.78
2023-05-17T02:23:21.543Z,37888.59
2023-05-17T02:25:48.010Z,37928.47
2023-05-17T02:28:14.453Z,37920.50
2023-05-17T02:30:40.896Z,37932.47
2023-05-17T02:33:08.235Z,37904.56
2023-05-17T02:35:34.814Z,37984.31
2023-05-17T02:38:01.496Z,37976.34
2023-05-17T02:40:27.932Z,38022.19
2023-05-17T02:42:54.488Z,38032.16
2023-05-17T02:45:20.933Z,38060.09
2023-05-17T02:47:47.559Z,38084.00
2023-05-17T02:50:14.413Z,38107.94
2023-05-17T02:52:41.484Z,38109.94
2023-05-17T02:55:08.339Z,38167.78
2023-05-17T02:57:34.822Z,38223.59
2023-05-17T03:00:02.052Z,38271.47
2023-05-17T03:02:29.096Z,38339.28
2023-05-17T03:04:55.760Z,38403.09
2023-05-17T03:07:22.533Z,38448.94
2023-05-17T03:09:49.302Z,38466.91
2023-05-17T03:12:15.963Z,38572.59
2023-05-17T03:14:42.657Z,38594.53
2023-05-17T03:17:09.621Z,38682.28
2023-05-17T03:19:36.168Z,38740.13
2023-05-17T03:22:03.769Z,38905.66
2023-05-17T03:24:32.858Z,39061.25
2023-05-17T03:27:00.229Z,39272.69
2023-05-17T03:29:26.856Z,39547.97
2023-05-17T03:31:53.436Z,39831.28
2023-05-17T03:34:19.984Z,40036.78
2023-05-17T03:36:46.875Z,40198.41
2023-05-17T03:39:13.618Z,40268.22
2023-05-17T03:41:42.200Z,40374.00
2023-05-17T03:44:09.983Z,40469.78
2023-05-17T03:46:37.226Z,40531.63
2023-05-17T03:49:04.706Z,40573.53
2023-05-17T03:51:33.024Z,40609.44
2023-05-17T03:54:01.236Z,40649.38
2023-05-17T03:56:29.381Z,40705.25
2023-05-17T03:58:55.818Z,40697.25
2023-05-17T04:01:22.868Z,40721.22
2023-05-17T04:03:49.540Z,40703.25
2023-05-17T04:06:16.562Z,40701.25
2023-05-17T04:08:43.911Z,40697.25
2023-05-17T04:11:12.795Z,40721.22
2023-05-17T04:13:40.744Z,40725.19
2023-05-17T04:16:08.779Z,40669.31
2023-05-17T04:18:38.008Z,40699.25
2023-05-17T04:21:05.407Z,40725.19
2023-05-17T04:23:34.161Z,40683.28
2023-05-17T04:26:02.035Z,40717.22
2023-05-17T04:28:31.120Z,40749.16
2023-05-17T04:30:58.025Z,40737.16
2023-05-17T04:33:24.704Z,40745.16
2023-05-17T04:35:54.801Z,40745.16
2023-05-17T04:38:24.088Z,40761.13
2023-05-17T04:40:51.154Z,40745.16
2023-05-17T04:43:17.964Z,40749.16
2023-05-17T04:45:45.034Z,40757.13
2023-05-17T04:48:11.902Z,40729.19
2023-05-17T04:50:38.566Z,40715.22
2023-05-17T04:53:05.100Z,40737.16
2023-05-17T04:55:34.631Z,40725.19
2023-05-17T04:58:01.159Z,40749.16
2023-05-17T05:00:28.098Z,40727.19
2023-05-17T05:03:01.410Z,40709.22
2023-05-17T05:05:28.373Z,40741.16
2023-05-17T05:07:55.171Z,40741.16
2023-05-17T05:10:21.793Z,40759.13
2023-05-17T05:12:48.636Z,40781.06
2023-05-17T05:15:15.647Z,40793.06
2023-05-17T05:17:48.606Z,40805.03
2023-05-17T05:20:15.667Z,40844.94
2023-05-17T05:22:43.041Z,40838.94
2023-05-17T05:25:10.417Z,40819.00
2023-05-17T05:27:37.032Z,40817.00
2023-05-17T05:30:04.127Z,40862.91
2023-05-17T05:32:32.221Z,40840.94
2023-05-17T05:34:58.864Z,40840.94
2023-05-17T05:37:25.912Z,40916.78
2023-05-17T05:39:53.298Z,40964.69
2023-05-17T05:42:20.076Z,40972.66
2023-05-17T05:44:46.591Z,40980.66
2023-05-17T05:47:13.579Z,41006.59
2023-05-17T05:49:40.036Z,40992.63
2023-05-17T05:52:06.579Z,40988.63
2023-05-17T05:54:36.218Z,40944.72
2023-05-17T05:57:02.770Z,40946.72
2023-05-17T05:59:30.495Z,40942.72
2023-05-17T06:01:58.858Z,40876.88
2023-05-17T06:04:33.065Z,40892.84
2023-05-17T06:07:10.846Z,40860.91
2023-05-17T06:09:38.429Z,40801.03
2023-05-17T06:12:05.300Z,40765.13
2023-05-17T06:14:31.748Z,40705.25
2023-05-17T06:16:58.207Z,40541.59
2023-05-17T06:19:25.122Z,40302.16
2023-05-17T06:21:51.720Z,40328.09
2023-05-17T06:24:18.203Z,40278.22
2023-05-17T06:26:44.738Z,40174.44
2023-05-17T06:29:11.183Z,40134.53
2023-05-17T06:31:37.648Z,40118.59
2023-05-17T06:34:04.269Z,40110.59
2023-05-17T06:36:32.395Z,40098.63
2023-05-17T06:38:59.620Z,39982.91
2023-05-17T06:41:26.248Z,39935.03
2023-05-17T06:43:52.673Z,39791.38
2023-05-17T06:46:19.116Z,39735.50
2023-05-17T06:48:47.390Z,39655.72
2023-05-17T06:51:15.874Z,39551.97
2023-05-17T06:53:42.365Z,39559.94
2023-05-17T06:56:08.834Z,39540.00
2023-05-17T06:58:35.612Z,39400.34
2023-05-17T07:01:02.103Z,39392.38
2023-05-17T07:03:28.669Z,39420.31
2023-05-17T07:05:55.210Z,39412.31
2023-05-17T07:08:21.749Z,39408.34
2023-05-17T07:10:51.725Z,39358.47
2023-05-17T07:13:18.870Z,39358.47
2023-05-17T07:15:46.175Z,39332.53
2023-05-17T07:18:12.738Z,39316.56
2023-05-17T07:20:39.283Z,39288.66
2023-05-17T07:23:05.972Z,39244.75
2023-05-17T07:25:32.937Z,39276.69
2023-05-17T07:27:59.662Z,39176.94
2023-05-17T07:30:26.285Z,39101.16
2023-05-17T07:32:52.800Z,39161.00
2023-05-17T07:35:21.678Z,39053.28
2023-05-17T07:37:48.543Z,39045.28
2023-05-17T07:40:15.413Z,39037.31
2023-05-17T07:42:41.832Z,39009.38
2023-05-17T07:45:08.962Z,39005.41
2023-05-17T07:47:35.575Z,38931.59
2023-05-17T07:50:03.770Z,38929.59
2023-05-17T07:52:30.253Z,38945.56
2023-05-17T07:54:56.663Z,38935.59
2023-05-17T07:57:23.225Z,38901.69
2023-05-17T07:59:49.657Z,38883.72
2023-05-17T08:02:16.873Z,38899.69
2023-05-17T08:04:43.420Z,38923.63
2023-05-17T08:07:09.874Z,38871.75
2023-05-17T08:09:36.365Z,38875.75
2023-05-17T08:12:03.788Z,38873.75
2023-05-17T08:14:30.271Z,38877.75
2023-05-17T08:16:56.703Z,38861.78
2023-05-17T08:19:23.252Z,38778.03
2023-05-17T08:21:49.846Z,38754.09
2023-05-17T08:24:17.540Z,38686.28
2023-05-17T08:26:44.030Z,38686.28
2023-05-17T08:29:10.934Z,38666.34
2023-05-17T08:31:37.486Z,38622.47
2023-05-17T08:34:04.158Z,38622.47
2023-05-17T08:36:30.766Z,38582.56
2023-05-17T08:38:57.246Z,38590.56
2023-05-17T08:41:24.464Z,38578.59
2023-05-17T08:43:51.606Z,38582.56
2023-05-17T08:46:21.729Z,38602.50
2023-05-17T08:48:51.856Z,38580.56
2023-05-17T08:51:19.837Z,38574.59
2023-05-17T08:53:47.189Z,38602.50
2023-05-17T08:56:16.377Z,38598.53
2023-05-17T08:58:55.485Z,38590.56
2023-05-17T09:01:26.533Z,38578.59
2023-05-17T09:03:54.682Z,38528.72
2023-05-17T09:06:22.594Z,38562.63
2023-05-17T09:08:54.440Z,38574.59
2023-05-17T09:11:29.284Z,38570.59
2023-05-17T09:14:00.377Z,38538.69
2023-05-17T09:16:36.201Z,38486.84
2023-05-17T09:19:07.450Z,38554.66
2023-05-17T09:21:36.199Z,38558.63
2023-05-17T09:24:07.051Z,38516.75
2023-05-17T09:26:45.698Z,38510.78
2023-05-17T09:29:14.913Z,38407.06
2023-05-17T09:31:41.999Z,38387.13
2023-05-17T09:34:09.112Z,38347.25
2023-05-17T09:36:38.433Z,38347.25
2023-05-17T09:39:07.879Z,38379.16
2023-05-17T09:41:47.379Z,38315.34
2023-05-17T09:44:15.436Z,38347.25
2023-05-17T09:46:44.708Z,38331.28
2023-05-17T09:49:12.348Z,38315.34
2023-05-17T09:51:43.281Z,38303.38
2023-05-17T09:54:10.974Z,38335.28
2023-05-17T09:56:38.196Z,38337.28
2023-05-17T09:59:14.439Z,38301.38
2023-05-17T10:01:42.565Z,38327.31
2023-05-17T10:04:10.699Z,38283.44
2023-05-17T10:06:46.454Z,38249.53
2023-05-17T10:09:17.116Z,38261.50
2023-05-17T10:11:46.700Z,38239.56
2023-05-17T10:14:33.721Z,38203.66
2023-05-17T10:17:03.434Z,38181.72
2023-05-17T10:19:30.723Z,38157.81
2023-05-17T10:22:05.182Z,38171.75
2023-05-17T10:24:46.459Z,38173.75
2023-05-17T10:27:13.314Z,38135.88
2023-05-17T10:29:41.179Z,38171.75
2023-05-17T10:32:08.044Z,38159.78
2023-05-17T10:34:39.496Z,38171.75
2023-05-17T10:37:06.730Z,38149.81
2023-05-17T10:39:34.786Z,38123.91
2023-05-17T10:42:14.265Z,38147.81
2023-05-17T10:44:42.561Z,38094.00
2023-05-17T10:47:11.110Z,38115.91
2023-05-17T10:49:39.578Z,38163.78
2023-05-17T10:52:32.160Z,38151.81
2023-05-17T10:54:59.562Z,38123.91
2023-05-17T10:57:49.975Z,38143.84
2023-05-17T11:00:27.647Z,38123.91
2023-05-17T11:03:12.229Z,38080.03
2023-05-17T11:05:43.679Z,38080.03
2023-05-17T11:08:17.919Z,38123.91
2023-05-17T11:11:14.017Z,38103.97
2023-05-17T11:13:54.165Z,38117.91
2023-05-17T11:16:22.427Z,38171.75
2023-05-17T11:18:54.048Z,38203.66
2023-05-17T11:21:22.628Z,38211.63
2023-05-17T11:23:56.350Z,38189.72
2023-05-17T11:26:34.140Z,38155.81
2023-05-17T11:29:04.866Z,38167.78
2023-05-17T11:31:36.806Z,38151.81
2023-05-17T11:34:04.559Z,38153.81
2023-05-17T11:36:32.271Z,38235.56
2023-05-17T11:39:11.931Z,38295.41
2023-05-17T11:41:41.505Z,38285.44
2023-05-17T11:44:11.296Z,38291.41
2023-05-17T11:46:39.192Z,38289.41
2023-05-17T11:49:09.126Z,38247.53
2023-05-17T11:51:36.402Z,38199.69
2023-05-17T11:54:04.167Z,38101.97
2023-05-17T11:56:43.556Z,38099.97
2023-05-17T11:59:10.862Z,38074.03
2023-05-17T12:01:47.545Z,38064.06
2023-05-17T12:04:14.459Z,38103.97
2023-05-17T12:06:41.411Z,38052.13
2023-05-17T12:09:10.872Z,37976.34
2023-05-17T12:11:39.433Z,37982.31
2023-05-17T12:14:06.535Z,37962.38
2023-05-17T12:16:36.285Z,37757.00
2023-05-17T12:19:03.805Z,37836.75
2023-05-17T12:21:30.440Z,37838.75
2023-05-17T12:23:56.883Z,37792.91
2023-05-17T12:26:23.631Z,37786.91
2023-05-17T12:28:58.558Z,37761.00
2023-05-17T12:31:38.271Z,37768.97
2023-05-17T12:34:06.557Z,37707.16
2023-05-17T12:36:34.005Z,37593.50
2023-05-17T12:39:01.568Z,37645.34
2023-05-17T12:41:30.002Z,37557.63
2023-05-17T12:44:06.228Z,37583.53
2023-05-17T12:46:40.895Z,37633.38
2023-05-17T12:49:12.290Z,37585.53
2023-05-17T12:51:41.125Z,37547.66
2023-05-17T12:54:07.781Z,37581.56
2023-05-17T12:56:34.292Z,37541.69
2023-05-17T12:59:25.528Z,37509.78
2023-05-17T13:01:55.663Z,37410.09
2023-05-17T13:04:31.591Z,37422.06
2023-05-17T13:07:01.335Z,37392.16
2023-05-17T13:09:33.432Z,37386.16
2023-05-17T13:12:02.094Z,37426.03
2023-05-17T13:14:46.548Z,37434.00
2023-05-17T13:17:21.028Z,37374.22
2023-05-17T13:19:47.716Z,37398.13
2023-05-17T13:22:15.616Z,37290.47
2023-05-17T13:24:43.967Z,37254.59
2023-05-17T13:27:11.805Z,37210.72
2023-05-17T13:29:41.529Z,37242.63
2023-05-17T13:32:09.939Z,37262.56
2023-05-17T13:34:36.663Z,37194.78
2023-05-17T13:37:04.163Z,37117.03
2023-05-17T13:39:30.783Z,37166.88
2023-05-17T13:41:58.057Z,37146.94
2023-05-17T13:44:24.981Z,37234.66
2023-05-17T13:46:51.555Z,37218.69
2023-05-17T13:49:18.263Z,37238.63
2023-05-17T13:51:45.853Z,37202.75
2023-05-17T13:54:12.617Z,37158.91
2023-05-17T13:56:39.224Z,37158.91
2023-05-17T13:59:05.752Z,37127.00
2023-05-17T14:01:32.260Z,37131.00
2023-05-17T14:04:00.580Z,37150.94
2023-05-17T14:06:27.524Z,37146.94
2023-05-17T14:08:55.369Z,37144.94
2023-05-17T14:11:21.926Z,37087.13
2023-05-17T14:13:48.363Z,37312.41
2023-05-17T14:16:14.949Z,37162.88
2023-05-17T14:18:41.653Z,37119.03
2023-05-17T14:21:08.407Z,37095.09
2023-05-17T14:23:35.444Z,37031.31
2023-05-17T14:26:04.976Z,37081.16
2023-05-17T14:28:31.491Z,37019.34
2023-05-17T14:30:57.951Z,37019.34
2023-05-17T14:33:25.650Z,37047.25
2023-05-17T14:35:52.264Z,37158.91
2023-05-17T14:38:20.333Z,36987.47
2023-05-17T14:40:46.909Z,37035.31
2023-05-17T14:43:13.402Z,37025.34
2023-05-17T14:45:39.886Z,37184.81
2023-05-17T14:48:06.663Z,37097.09
2023-05-17T14:50:34.577Z,36995.44
2023-05-17T14:53:01.078Z,36975.50
2023-05-17T14:55:27.692Z,36943.59
2023-05-17T14:57:54.719Z,36869.84
2023-05-17T15:00:22.269Z,36873.84
2023-05-17T15:02:48.778Z,36847.94
2023-05-17T15:05:15.308Z,36828.00
2023-05-17T15:07:42.304Z,36820.03
2023-05-17T15:10:10.287Z,36851.91
2023-05-17T15:12:36.761Z,36824.00
2023-05-17T15:15:03.417Z,36833.97
2023-05-17T15:17:29.906Z,36794.09
2023-05-17T15:19:56.682Z,36776.16
2023-05-17T15:22:24.197Z,36820.03
2023-05-17T15:24:51.514Z,36766.19
2023-05-17T15:27:18.344Z,36734.31
2023-05-17T15:29:44.853Z,36796.09
2023-05-17T15:32:11.459Z,36780.16
2023-05-17T15:34:38.030Z,36784.13
2023-05-17T15:37:04.565Z,36812.03
2023-05-17T15:39:31.299Z,36780.16
2023-05-17T15:41:57.876Z,36788.13
2023-05-17T15:44:24.429Z,36744.28
2023-05-17T15:46:50.940Z,36734.31
2023-05-17T15:49:17.400Z,36756.22
2023-05-17T15:51:44.165Z,36782.16
2023-05-17T15:54:10.663Z,36760.22
2023-05-17T15:56:38.242Z,36686.47
2023-05-17T15:59:05.619Z,36722.34
2023-05-17T16:01:32.082Z,36686.47
2023-05-17T16:03:58.642Z,36702.41
2023-05-17T16:06:25.217Z,36650.59
2023-05-17T16:08:51.683Z,36706.41
2023-05-17T16:11:18.139Z,36694.44
2023-05-17T16:13:44.571Z,36668.53
2023-05-17T16:16:13.251Z,36684.47
2023-05-17T16:18:39.999Z,36628.66
2023-05-17T16:21:07.781Z,36624.69
2023-05-17T16:23:34.401Z,36636.63
2023-05-17T16:26:01.379Z,36672.50
2023-05-17T16:28:28.174Z,36624.69
2023-05-17T16:30:54.759Z,36620.69
2023-05-17T16:33:21.483Z,36592.78
2023-05-17T16:35:51.565Z,36640.63
2023-05-17T16:38:18.117Z,36668.53
2023-05-17T16:40:44.618Z,36620.69
2023-05-17T16:43:15.708Z,36586.81
2023-05-17T16:45:45.473Z,36608.72
2023-05-17T16:48:14.164Z,36580.81
2023-05-17T16:50:41.777Z,36554.91
2023-05-17T16:53:08.632Z,36580.81
2023-05-17T16:55:36.230Z,36566.88
2023-05-17T16:58:02.778Z,36564.88
2023-05-17T17:00:29.985Z,36536.97
2023-05-17T17:02:58.146Z,36568.88
2023-05-17T17:05:25.118Z,36592.78
2023-05-17T17:07:51.625Z,36548.94
2023-05-17T17:10:19.920Z,36546.94
2023-05-17T17:12:48.105Z,36529.00
2023-05-17T17:15:15.476Z,36536.97
2023-05-17T17:17:42.508Z,36531.00
2023-05-17T17:20:09.530Z,36529.00
2023-05-17T17:22:36.104Z,36533.00
2023-05-17T17:25:02.596Z,36540.97
2023-05-17T17:27:29.118Z,36517.03
2023-05-17T17:29:55.796Z,36523.03
2023-05-17T17:32:22.353Z,36536.97
2023-05-17T17:34:48.932Z,36525.03
2023-05-17T17:37:16.075Z,36513.06
2023-05-17T17:39:42.649Z,36562.88
2023-05-17T17:42:10.185Z,36548.94
2023-05-17T17:44:36.695Z,36509.06
2023-05-17T17:47:03.272Z,36515.06
2023-05-17T17:49:30.136Z,36505.09
2023-05-17T17:51:58.107Z,36521.03
2023-05-17T17:54:25.014Z,36531.00
2023-05-17T17:56:52.026Z,36509.06
2023-05-17T17:59:18.453Z,36544.94
2023-05-17T18:01:45.026Z,36540.97
2023-05-17T18:04:13.318Z,36517.03
2023-05-17T18:06:41.713Z,36497.13
2023-05-17T18:09:08.637Z,36521.03
2023-05-17T18:11:35.182Z,36491.13
2023-05-17T18:14:02.444Z,36495.13
2023-05-17T18:16:29.055Z,36489.16
2023-05-17T18:18:55.587Z,36469.22
2023-05-17T18:21:22.127Z,36463.22
2023-05-17T18:23:48.529Z,36453.28
2023-05-17T18:26:14.956Z,36483.16
2023-05-17T18:28:42.851Z,36473.19
2023-05-17T18:31:09.568Z,36489.16
2023-05-17T18:33:36.012Z,36481.16
2023-05-17T18:36:02.600Z,36485.16
2023-05-17T18:38:29.958Z,36493.13
2023-05-17T18:40:56.853Z,36493.13
2023-05-17T18:43:23.480Z,36453.28
2023-05-17T18:45:51.190Z,36477.19
2023-05-17T18:48:18.362Z,36437.31
2023-05-17T18:50:44.880Z,36477.19
2023-05-17T18:53:12.723Z,36493.13
2023-05-17T18:55:39.149Z,36481.16
2023-05-17T18:58:05.599Z,36481.16
2023-05-17T19:00:32.210Z,36469.22
2023-05-17T19:02:58.890Z,36495.13
2023-05-17T19:05:25.630Z,36487.16
2023-05-17T19:07:52.083Z,36479.19
2023-05-17T19:10:19.787Z,36471.22
2023-05-17T19:12:46.332Z,36477.19
2023-05-17T19:15:13.071Z,36477.19
2023-05-17T19:17:39.766Z,36481.16
2023-05-17T19:20:07.133Z,36479.19
2023-05-17T19:22:35.658Z,36469.22
2023-05-17T19:25:02.412Z,36437.31
2023-05-17T19:27:28.886Z,36449.28
2023-05-17T19:29:55.791Z,36509.06
2023-05-17T19:32:22.753Z,36465.22
2023-05-17T19:34:49.777Z,36481.16
2023-05-17T19:37:16.401Z,36469.22
2023-05-17T19:39:42.831Z,36457.25
2023-05-17T19:42:09.832Z,36473.19
2023-05-17T19:44:36.276Z,36497.13
2023-05-17T19:47:02.694Z,36453.28
2023-05-17T19:49:29.215Z,36485.16
2023-05-17T19:52:00.389Z,36467.22
2023-05-17T19:54:30.322Z,36453.28
2023-05-17T19:56:57.445Z,36481.16
2023-05-17T19:59:23.945Z,36477.19
2023-05-17T20:01:50.538Z,36457.25
2023-05-17T20:04:17.153Z,36469.22
2023-05-17T20:06:43.872Z,36463.22
2023-05-17T20:09:10.454Z,36461.25
2023-05-17T20:11:36.967Z,36443.31
2023-05-17T20:14:03.412Z,36455.25
2023-05-17T20:16:30.743Z,36475.19
2023-05-17T20:19:00.779Z,36443.31
2023-05-17T20:21:27.322Z,36453.28
2023-05-17T20:24:00.539Z,36457.25
2023-05-17T20:26:31.278Z,36421.38
2023-05-17T20:28:58.891Z,36421.38
2023-05-17T20:31:25.853Z,36427.34
2023-05-17T20:33:52.909Z,36433.34
2023-05-17T20:36:19.948Z,36451.28
2023-05-17T20:38:46.727Z,36453.28
2023-05-17T20:41:14.706Z,36443.31
2023-05-17T20:43:45.214Z,36441.31
2023-05-17T20:46:15.795Z,36443.31
2023-05-17T20:48:43.131Z,36429.34
2023-05-17T20:51:10.594Z,36421.38
2023-05-17T20:53:37.708Z,36435.34
2023-05-17T20:56:04.659Z,36449.28
2023-05-17T20:58:31.395Z,36431.34
2023-05-17T21:00:59.814Z,36455.25
2023-05-17T21:03:33.892Z,36441.31
2023-05-17T21:06:02.007Z,36445.28
2023-05-17T21:08:28.598Z,36419.38
2023-05-17T21:10:55.730Z,36425.38
2023-05-17T21:13:23.787Z,36441.31
2023-05-17T21:15:50.400Z,36425.38
2023-05-17T21:18:16.979Z,36409.41
2023-05-17T21:20:43.504Z,36417.38
2023-05-17T21:23:10.289Z,36411.41
2023-05-17T21:25:37.654Z,36421.38
2023-05-17T21:28:05.691Z,36405.44
2023-05-17T21:30:32.224Z,36417.38
2023-05-17T21:32:59.311Z,36407.44
2023-05-17T21:35:25.883Z,36407.44
2023-05-17T21:37:52.499Z,36383.50
2023-05-17T21:40:19.195Z,36393.47
2023-05-17T21:42:46.118Z,36375.53
2023-05-17T21:45:14.548Z,36399.47
2023-05-17T21:47:41.221Z,36417.38
2023-05-17T21:50:07.953Z,36409.41
2023-05-17T21:52:34.639Z,36409.41
2023-05-17T21:55:01.183Z,36373.53
2023-05-17T21:57:27.725Z,36417.38
2023-05-17T21:59:54.144Z,36425.38
2023-05-17T22:02:20.865Z,36405.44
2023-05-17T22:04:47.367Z,36413.41
2023-05-17T22:07:13.995Z,36409.41
2023-05-17T22:09:40.444Z,36393.47
2023-05-17T22:12:09.192Z,36393.47
2023-05-17T22:14:36.375Z,36379.53
2023-05-17T22:17:08.984Z,36373.53
2023-05-17T22:19:40.420Z,36407.44
2023-05-17T22:22:08.077Z,36403.44
2023-05-17T22:24:34.890Z,36417.38
2023-05-17T22:27:02.235Z,36437.31
2023-05-17T22:29:29.230Z,36417.38
2023-05-17T22:31:55.769Z,36415.41
2023-05-17T22:34:22.300Z,36397.47
2023-05-17T22:36:49.006Z,36405.44
2023-05-17T22:39:15.414Z,36413.41
2023-05-17T22:41:41.983Z,36399.47
2023-05-17T22:44:08.442Z,36405.44
2023-05-17T22:46:35.059Z,36429.34
2023-05-17T22:49:01.643Z,36399.47
2023-05-17T22:51:29.915Z,36421.38
2023-05-17T22:53:56.772Z,36415.41
2023-05-17T22:56:23.289Z,36437.31
2023-05-17T22:58:49.982Z,36449.28
2023-05-17T23:01:16.496Z,36423.38
2023-05-17T23:03:43.040Z,36401.44
2023-05-17T23:06:09.595Z,36371.56
2023-05-17T23:08:36.430Z,36393.47
2023-05-17T23:11:05.256Z,36367.56
2023-05-17T23:13:31.691Z,36381.53
2023-05-17T23:15:58.173Z,36385.50
2023-05-17T23:18:27.284Z,36355.59
2023-05-17T23:20:53.872Z,36363.56
2023-05-17T23:23:22.892Z,36351.63
2023-05-17T23:25:50.835Z,36373.53
2023-05-17T23:28:18.774Z,36353.63
2023-05-17T23:30:48.480Z,36361.59
2023-05-17T23:33:15.428Z,36369.56
2023-05-17T23:35:41.879Z,36373.53
2023-05-17T23:38:08.364Z,36349.63
2023-05-17T23:40:34.833Z,36365.56
2023-05-17T23:43:01.281Z,36393.47
2023-05-17T23:45:28.064Z,36357.59
2023-05-17T23:47:54.670Z,36341.66
2023-05-17T23:50:21.223Z,36357.59
2023-05-17T23:52:47.888Z,36385.50
2023-05-17T23:55:14.431Z,36337.66
2023-05-17T23:57:42.262Z,36343.66
